Morganville, Kansas
Current Conditions -  °F | °C
As of 6:55 PM on Saturday 25 Oct 2014 (Local Time) from KCNK Reporting Station
Clear Clear  
Wind Chill: 72°   Ceiling: Unl
Heat Index: 72°   Visibility: 10mi
Dew Point: 60°   Wind: 6mph
Humidity: 66%   Direction: 90°E
Pressure: 29.96"   Gusts: NA
Location:  39.47°N, 97.2°W
Report Text: KCNK 252355Z AUTO 09005KT 10SM CLR 22/16 A2996 RMK AO2 SLP140 T02220156 10283 20222 56015
Loading
Personal Weather Stations






























Interactive Weather Map New forecast layout! Learn more

10-Day Weather Forecast

Advertisements
Track Severe Weather on mobile